sensor_id;sensor_type;location;lat;lon;timestamp;temperature;humidity
15879;DHT22;61999;51.514;14.614;2023-03-04T00:00:47;-2.10;63.40
15879;DHT22;61999;51.514;14.614;2023-03-04T00:03:15;-2.20;63.20
15879;DHT22;61999;51.514;14.614;2023-03-04T00:05:43;-2.20;63.50
15879;DHT22;61999;51.514;14.614;2023-03-04T00:08:12;-2.10;62.90
15879;DHT22;61999;51.514;14.614;2023-03-04T00:10:40;-2.30;63.50
15879;DHT22;61999;51.514;14.614;2023-03-04T00:13:10;-2.20;63.50
15879;DHT22;61999;51.514;14.614;2023-03-04T00:15:39;-2.10;63.10
15879;DHT22;61999;51.514;14.614;2023-03-04T00:18:07;-2.00;62.90
15879;DHT22;61999;51.514;14.614;2023-03-04T00:20:35;-2.20;63.10
15879;DHT22;61999;51.514;14.614;2023-03-04T00:23:03;-2.30;63.70
15879;DHT22;61999;51.514;14.614;2023-03-04T00:25:31;-2.40;64.10
15879;DHT22;61999;51.514;14.614;2023-03-04T00:27:59;-2.20;63.80
15879;DHT22;61999;51.514;14.614;2023-03-04T00:30:28;-2.30;63.60
15879;DHT22;61999;51.514;14.614;2023-03-04T00:32:56;-2.30;63.80
15879;DHT22;61999;51.514;14.614;2023-03-04T00:35:24;-2.40;64.10
15879;DHT22;61999;51.514;14.614;2023-03-04T00:37:52;-2.60;64.70
15879;DHT22;61999;51.514;14.614;2023-03-04T00:40:20;-2.80;65.10
15879;DHT22;61999;51.514;14.614;2023-03-04T00:42:48;-2.80;65.40
15879;DHT22;61999;51.514;14.614;2023-03-04T00:45:16;-2.50;64.60
15879;DHT22;61999;51.514;14.614;2023-03-04T00:47:45;-2.60;64.80
15879;DHT22;61999;51.514;14.614;2023-03-04T00:50:14;-2.50;64.40
15879;DHT22;61999;51.514;14.614;2023-03-04T00:52:42;-2.40;64.40
15879;DHT22;61999;51.514;14.614;2023-03-04T00:55:10;-2.40;64.10
15879;DHT22;61999;51.514;14.614;2023-03-04T00:57:38;-2.50;64.30
15879;DHT22;61999;51.514;14.614;2023-03-04T01:00:07;-2.40;64.30
15879;DHT22;61999;51.514;14.614;2023-03-04T01:02:36;-2.40;64.40
15879;DHT22;61999;51.514;14.614;2023-03-04T01:05:07;-2.50;64.70
15879;DHT22;61999;51.514;14.614;2023-03-04T01:07:35;-2.20;63.90
15879;DHT22;61999;51.514;14.614;2023-03-04T01:10:05;-2.20;63.50
15879;DHT22;61999;51.514;14.614;2023-03-04T01:12:34;-2.30;63.60
15879;DHT22;61999;51.514;14.614;2023-03-04T01:15:02;-2.20;63.50
15879;DHT22;61999;51.514;14.614;2023-03-04T01:17:31;-2.30;63.60
15879;DHT22;61999;51.514;14.614;2023-03-04T01:19:59;-2.30;63.70
15879;DHT22;61999;51.514;14.614;2023-03-04T01:22:28;-2.40;64.20
15879;DHT22;61999;51.514;14.614;2023-03-04T01:24:56;-2.20;63.70
15879;DHT22;61999;51.514;14.614;2023-03-04T01:27:24;-2.10;63.10
15879;DHT22;61999;51.514;14.614;2023-03-04T01:29:52;-2.20;63.80
15879;DHT22;61999;51.514;14.614;2023-03-04T01:32:20;-2.00;63.00
15879;DHT22;61999;51.514;14.614;2023-03-04T01:34:48;-2.00;63.10
15879;DHT22;61999;51.514;14.614;2023-03-04T01:37:16;-1.90;62.50
15879;DHT22;61999;51.514;14.614;2023-03-04T01:39:45;-1.90;62.50
15879;DHT22;61999;51.514;14.614;2023-03-04T01:42:17;-1.80;62.30
15879;DHT22;61999;51.514;14.614;2023-03-04T01:44:48;-1.70;61.60
15879;DHT22;61999;51.514;14.614;2023-03-04T01:47:18;-1.70;61.40
15879;DHT22;61999;51.514;14.614;2023-03-04T01:49:53;-1.70;61.40
15879;DHT22;61999;51.514;14.614;2023-03-04T01:52:23;-1.60;60.70
15879;DHT22;61999;51.514;14.614;2023-03-04T01:54:55;-1.70;60.80
15879;DHT22;61999;51.514;14.614;2023-03-04T01:57:25;-1.90;61.30
15879;DHT22;61999;51.514;14.614;2023-03-04T02:00:20;-2.00;62.20
15879;DHT22;61999;51.514;14.614;2023-03-04T02:02:53;-2.10;62.50
15879;DHT22;61999;51.514;14.614;2023-03-04T02:05:23;-2.00;62.50
15879;DHT22;61999;51.514;14.614;2023-03-04T02:07:52;-1.80;62.00
15879;DHT22;61999;51.514;14.614;2023-03-04T02:10:23;-1.80;61.60
15879;DHT22;61999;51.514;14.614;2023-03-04T02:12:52;-1.70;61.20
15879;DHT22;61999;51.514;14.614;2023-03-04T02:15:21;-2.00;62.30
15879;DHT22;61999;51.514;14.614;2023-03-04T02:17:49;-2.20;63.00
15879;DHT22;61999;51.514;14.614;2023-03-04T02:20:24;-2.40;63.60
15879;DHT22;61999;51.514;14.614;2023-03-04T02:23:04;-2.50;64.20
15879;DHT22;61999;51.514;14.614;2023-03-04T02:25:42;-2.80;65.20
15879;DHT22;61999;51.514;14.614;2023-03-04T02:28:15;-2.90;65.70
15879;DHT22;61999;51.514;14.614;2023-03-04T02:30:43;-2.90;66.20
15879;DHT22;61999;51.514;14.614;2023-03-04T02:33:16;-3.10;66.30
15879;DHT22;61999;51.514;14.614;2023-03-04T02:35:46;-3.10;66.70
15879;DHT22;61999;51.514;14.614;2023-03-04T02:38:14;-2.90;66.10
15879;DHT22;61999;51.514;14.614;2023-03-04T02:40:46;-2.80;65.90
15879;DHT22;61999;51.514;14.614;2023-03-04T02:43:18;-2.70;65.60
15879;DHT22;61999;51.514;14.614;2023-03-04T02:45:48;-2.60;65.20
15879;DHT22;61999;51.514;14.614;2023-03-04T02:48:20;-2.50;64.80
15879;DHT22;61999;51.514;14.614;2023-03-04T02:50:51;-2.60;65.10
15879;DHT22;61999;51.514;14.614;2023-03-04T02:53:20;-2.60;64.90
15879;DHT22;61999;51.514;14.614;2023-03-04T02:55:48;-2.50;65.10
15879;DHT22;61999;51.514;14.614;2023-03-04T02:58:16;-2.50;64.80
15879;DHT22;61999;51.514;14.614;2023-03-04T03:00:46;-2.30;64.60
15879;DHT22;61999;51.514;14.614;2023-03-04T03:03:14;-2.30;63.90
15879;DHT22;61999;51.514;14.614;2023-03-04T03:05:42;-2.30;64.30
15879;DHT22;61999;51.514;14.614;2023-03-04T03:08:10;-2.30;64.30
15879;DHT22;61999;51.514;14.614;2023-03-04T03:10:38;-2.20;63.90
15879;DHT22;61999;51.514;14.614;2023-03-04T03:13:06;-2.20;64.10
15879;DHT22;61999;51.514;14.614;2023-03-04T03:15:34;-2.10;63.70
15879;DHT22;61999;51.514;14.614;2023-03-04T03:18:05;-2.00;63.20
15879;DHT22;61999;51.514;14.614;2023-03-04T03:20:33;-1.90;63.20
15879;DHT22;61999;51.514;14.614;2023-03-04T03:23:02;-2.00;63.40
15879;DHT22;61999;51.514;14.614;2023-03-04T03:25:30;-1.90;62.90
15879;DHT22;61999;51.514;14.614;2023-03-04T03:27:58;-2.00;63.10
15879;DHT22;61999;51.514;14.614;2023-03-04T03:30:26;-2.10;63.40
15879;DHT22;61999;51.514;14.614;2023-03-04T03:32:54;-2.30;64.00
15879;DHT22;61999;51.514;14.614;2023-03-04T03:35:24;-2.30;64.20
15879;DHT22;61999;51.514;14.614;2023-03-04T03:37:52;-2.40;64.80
15879;DHT22;61999;51.514;14.614;2023-03-04T03:40:20;-2.40;64.70
15879;DHT22;61999;51.514;14.614;2023-03-04T03:42:47;-2.40;64.50
15879;DHT22;61999;51.514;14.614;2023-03-04T03:45:15;-2.20;64.30
15879;DHT22;61999;51.514;14.614;2023-03-04T03:47:43;-2.20;63.90
15879;DHT22;61999;51.514;14.614;2023-03-04T03:50:11;-2.10;63.70
15879;DHT22;61999;51.514;14.614;2023-03-04T03:52:41;-2.20;63.90
15879;DHT22;61999;51.514;14.614;2023-03-04T03:55:09;-2.00;63.70
15879;DHT22;61999;51.514;14.614;2023-03-04T03:57:37;-2.10;63.70
15879;DHT22;61999;51.514;14.614;2023-03-04T04:00:07;-2.10;63.80
15879;DHT22;61999;51.514;14.614;2023-03-04T04:02:36;-1.90;63.30
15879;DHT22;61999;51.514;14.614;2023-03-04T04:05:05;-1.80;62.80
15879;DHT22;61999;51.514;14.614;2023-03-04T04:07:35;-1.90;62.90
15879;DHT22;61999;51.514;14.614;2023-03-04T04:10:06;-2.00;63.30
15879;DHT22;61999;51.514;14.614;2023-03-04T04:12:35;-2.00;63.10
15879;DHT22;61999;51.514;14.614;2023-03-04T04:15:03;-1.90;62.80
15879;DHT22;61999;51.514;14.614;2023-03-04T04:17:32;-2.00;63.20
15879;DHT22;61999;51.514;14.614;2023-03-04T04:20:00;-2.10;63.20
15879;DHT22;61999;51.514;14.614;2023-03-04T04:22:28;-2.10;63.20
15879;DHT22;61999;51.514;14.614;2023-03-04T04:24:56;-2.10;63.20
15879;DHT22;61999;51.514;14.614;2023-03-04T04:27:25;-2.10;62.90
15879;DHT22;61999;51.514;14.614;2023-03-04T04:29:53;-2.10;63.20
15879;DHT22;61999;51.514;14.614;2023-03-04T04:32:21;-2.20;63.40
15879;DHT22;61999;51.514;14.614;2023-03-04T04:34:49;-2.10;62.70
15879;DHT22;61999;51.514;14.614;2023-03-04T04:37:17;-2.10;62.20
15879;DHT22;61999;51.514;14.614;2023-03-04T04:39:45;-2.20;62.20
15879;DHT22;61999;51.514;14.614;2023-03-04T04:42:13;-2.20;62.30
15879;DHT22;61999;51.514;14.614;2023-03-04T04:44:42;-2.20;61.90
15879;DHT22;61999;51.514;14.614;2023-03-04T04:47:10;-2.30;62.00
15879;DHT22;61999;51.514;14.614;2023-03-04T04:49:38;-2.50;62.90
15879;DHT22;61999;51.514;14.614;2023-03-04T04:52:06;-2.60;63.20
15879;DHT22;61999;51.514;14.614;2023-03-04T04:54:34;-2.50;63.40
15879;DHT22;61999;51.514;14.614;2023-03-04T04:57:02;-2.30;62.90
15879;DHT22;61999;51.514;14.614;2023-03-04T04:59:30;-2.20;62.70
15879;DHT22;61999;51.514;14.614;2023-03-04T05:02:00;-2.00;62.30
15879;DHT22;61999;51.514;14.614;2023-03-04T05:04:28;-2.10;62.50
15879;DHT22;61999;51.514;14.614;2023-03-04T05:06:56;-2.20;63.00
15879;DHT22;61999;51.514;14.614;2023-03-04T05:09:24;-2.10;62.80
15879;DHT22;61999;51.514;14.614;2023-03-04T05:11:52;-2.10;63.30
15879;DHT22;61999;51.514;14.614;2023-03-04T05:14:21;-2.20;63.50
15879;DHT22;61999;51.514;14.614;2023-03-04T05:16:49;-2.20;63.70
15879;DHT22;61999;51.514;14.614;2023-03-04T05:19:19;-2.30;64.20
15879;DHT22;61999;51.514;14.614;2023-03-04T05:21:47;-2.40;64.40
15879;DHT22;61999;51.514;14.614;2023-03-04T05:24:15;-2.50;64.90
15879;DHT22;61999;51.514;14.614;2023-03-04T05:26:43;-2.60;65.30
15879;DHT22;61999;51.514;14.614;2023-03-04T05:29:11;-2.50;65.50
15879;DHT22;61999;51.514;14.614;2023-03-04T05:31:39;-2.60;65.60
15879;DHT22;61999;51.514;14.614;2023-03-04T05:34:07;-2.50;65.70
15879;DHT22;61999;51.514;14.614;2023-03-04T05:36:36;-2.40;65.80
15879;DHT22;61999;51.514;14.614;2023-03-04T05:39:04;-2.50;65.90
15879;DHT22;61999;51.514;14.614;2023-03-04T05:41:32;-2.30;65.80
15879;DHT22;61999;51.514;14.614;2023-03-04T05:44:00;-2.20;65.30
15879;DHT22;61999;51.514;14.614;2023-03-04T05:46:28;-2.30;65.60
15879;DHT22;61999;51.514;14.614;2023-03-04T05:48:59;-2.40;65.80
15879;DHT22;61999;51.514;14.614;2023-03-04T05:51:26;-2.40;66.30
15879;DHT22;61999;51.514;14.614;2023-03-04T05:53:56;-2.50;66.80
15879;DHT22;61999;51.514;14.614;2023-03-04T05:56:24;-2.50;67.00
15879;DHT22;61999;51.514;14.614;2023-03-04T05:58:52;-2.30;66.60
15879;DHT22;61999;51.514;14.614;2023-03-04T06:01:23;-2.40;66.70
15879;DHT22;61999;51.514;14.614;2023-03-04T06:03:51;-2.50;67.20
15879;DHT22;61999;51.514;14.614;2023-03-04T06:06:19;-2.40;67.40
15879;DHT22;61999;51.514;14.614;2023-03-04T06:08:47;-2.40;68.30
15879;DHT22;61999;51.514;14.614;2023-03-04T06:11:17;-2.40;67.50
15879;DHT22;61999;51.514;14.614;2023-03-04T06:13:44;-2.30;67.40
15879;DHT22;61999;51.514;14.614;2023-03-04T06:16:12;-2.40;68.00
15879;DHT22;61999;51.514;14.614;2023-03-04T06:18:40;-2.60;69.10
15879;DHT22;61999;51.514;14.614;2023-03-04T06:21:08;-2.70;69.70
15879;DHT22;61999;51.514;14.614;2023-03-04T06:23:36;-2.80;70.10
15879;DHT22;61999;51.514;14.614;2023-03-04T06:26:04;-2.70;70.30
15879;DHT22;61999;51.514;14.614;2023-03-04T06:28:36;-2.70;70.30
15879;DHT22;61999;51.514;14.614;2023-03-04T06:31:04;-2.60;70.20
15879;DHT22;61999;51.514;14.614;2023-03-04T06:33:32;-2.70;70.60
15879;DHT22;61999;51.514;14.614;2023-03-04T06:36:00;-2.90;71.40
15879;DHT22;61999;51.514;14.614;2023-03-04T06:38:28;-3.00;71.90
15879;DHT22;61999;51.514;14.614;2023-03-04T06:40:56;-3.10;72.50
15879;DHT22;61999;51.514;14.614;2023-03-04T06:43:33;-3.10;73.10
15879;DHT22;61999;51.514;14.614;2023-03-04T06:46:02;-3.10;73.00
15879;DHT22;61999;51.514;14.614;2023-03-04T06:48:30;-3.00;72.80
15879;DHT22;61999;51.514;14.614;2023-03-04T06:51:04;-3.00;72.90
15879;DHT22;61999;51.514;14.614;2023-03-04T06:53:33;-3.00;73.20
15879;DHT22;61999;51.514;14.614;2023-03-04T06:56:01;-3.00;73.20
15879;DHT22;61999;51.514;14.614;2023-03-04T06:58:29;-3.00;73.50
15879;DHT22;61999;51.514;14.614;2023-03-04T07:01:07;-2.90;73.40
15879;DHT22;61999;51.514;14.614;2023-03-04T07:03:38;-2.70;72.90
15879;DHT22;61999;51.514;14.614;2023-03-04T07:06:08;-2.80;72.80
15879;DHT22;61999;51.514;14.614;2023-03-04T07:08:38;-2.80;73.40
15879;DHT22;61999;51.514;14.614;2023-03-04T07:11:07;-2.80;73.10
15879;DHT22;61999;51.514;14.614;2023-03-04T07:13:36;-2.90;73.40
15879;DHT22;61999;51.514;14.614;2023-03-04T07:16:05;-3.00;73.70
15879;DHT22;61999;51.514;14.614;2023-03-04T07:18:36;-3.00;74.60
15879;DHT22;61999;51.514;14.614;2023-03-04T07:21:06;-2.70;73.00
15879;DHT22;61999;51.514;14.614;2023-03-04T07:23:35;-2.70;72.70
15879;DHT22;61999;51.514;14.614;2023-03-04T07:26:03;-2.70;72.70
15879;DHT22;61999;51.514;14.614;2023-03-04T07:28:32;-2.80;73.00
15879;DHT22;61999;51.514;14.614;2023-03-04T07:31:08;-2.90;73.60
15879;DHT22;61999;51.514;14.614;2023-03-04T07:33:44;-2.90;73.70
15879;DHT22;61999;51.514;14.614;2023-03-04T07:36:12;-2.60;72.70
15879;DHT22;61999;51.514;14.614;2023-03-04T07:38:43;-2.60;72.70
15879;DHT22;61999;51.514;14.614;2023-03-04T07:41:11;-2.50;72.00
15879;DHT22;61999;51.514;14.614;2023-03-04T07:43:39;-2.60;72.60
15879;DHT22;61999;51.514;14.614;2023-03-04T07:46:08;-2.70;72.90
15879;DHT22;61999;51.514;14.614;2023-03-04T07:48:36;-2.80;73.50
15879;DHT22;61999;51.514;14.614;2023-03-04T07:51:08;-2.70;73.50
15879;DHT22;61999;51.514;14.614;2023-03-04T07:53:39;-2.50;72.80
15879;DHT22;61999;51.514;14.614;2023-03-04T07:56:11;-2.50;72.60
15879;DHT22;61999;51.514;14.614;2023-03-04T07:58:41;-2.60;73.30
15879;DHT22;61999;51.514;14.614;2023-03-04T08:01:10;-2.60;73.00
15879;DHT22;61999;51.514;14.614;2023-03-04T08:03:40;-2.60;73.40
15879;DHT22;61999;51.514;14.614;2023-03-04T08:06:11;-2.50;73.40
15879;DHT22;61999;51.514;14.614;2023-03-04T08:08:41;-2.50;73.70
15879;DHT22;61999;51.514;14.614;2023-03-04T08:11:12;-2.60;73.70
15879;DHT22;61999;51.514;14.614;2023-03-04T08:13:42;-2.50;74.20
15879;DHT22;61999;51.514;14.614;2023-03-04T08:16:12;-2.40;73.80
15879;DHT22;61999;51.514;14.614;2023-03-04T08:18:41;-2.20;73.20
15879;DHT22;61999;51.514;14.614;2023-03-04T08:21:12;-2.20;73.10
15879;DHT22;61999;51.514;14.614;2023-03-04T08:23:41;-2.10;72.90
15879;DHT22;61999;51.514;14.614;2023-03-04T08:26:11;-2.10;73.20
15879;DHT22;61999;51.514;14.614;2023-03-04T08:28:41;-2.00;72.90
15879;DHT22;61999;51.514;14.614;2023-03-04T08:31:11;-1.90;73.60
15879;DHT22;61999;51.514;14.614;2023-03-04T08:33:40;-1.90;72.70
15879;DHT22;61999;51.514;14.614;2023-03-04T08:36:09;-2.00;73.00
15879;DHT22;61999;51.514;14.614;2023-03-04T08:38:39;-2.00;73.10
15879;DHT22;61999;51.514;14.614;2023-03-04T08:41:07;-2.00;73.10
15879;DHT22;61999;51.514;14.614;2023-03-04T08:43:35;-1.70;73.00
15879;DHT22;61999;51.514;14.614;2023-03-04T08:46:03;-1.70;72.50
15879;DHT22;61999;51.514;14.614;2023-03-04T08:48:32;-1.80;72.90
15879;DHT22;61999;51.514;14.614;2023-03-04T08:51:01;-1.90;73.20
15879;DHT22;61999;51.514;14.614;2023-03-04T08:53:36;-1.80;73.40
15879;DHT22;61999;51.514;14.614;2023-03-04T08:56:05;-2.00;73.80
15879;DHT22;61999;51.514;14.614;2023-03-04T08:58:34;-1.90;74.00
15879;DHT22;61999;51.514;14.614;2023-03-04T09:01:03;-1.80;74.20
15879;DHT22;61999;51.514;14.614;2023-03-04T09:03:34;-2.00;74.50
15879;DHT22;61999;51.514;14.614;2023-03-04T09:06:03;-2.20;75.00
15879;DHT22;61999;51.514;14.614;2023-03-04T09:08:33;-2.00;75.80
15879;DHT22;61999;51.514;14.614;2023-03-04T09:11:02;-2.00;75.90
15879;DHT22;61999;51.514;14.614;2023-03-04T09:13:31;-2.10;75.30
15879;DHT22;61999;51.514;14.614;2023-03-04T09:16:00;-2.10;76.00
15879;DHT22;61999;51.514;14.614;2023-03-04T09:18:28;-2.20;76.50
15879;DHT22;61999;51.514;14.614;2023-03-04T09:20:56;-2.10;76.70
15879;DHT22;61999;51.514;14.614;2023-03-04T09:23:24;-2.10;77.40
15879;DHT22;61999;51.514;14.614;2023-03-04T09:25:52;-2.10;76.30
15879;DHT22;61999;51.514;14.614;2023-03-04T09:28:21;-2.20;77.00
15879;DHT22;61999;51.514;14.614;2023-03-04T09:30:49;-2.00;77.00
15879;DHT22;61999;51.514;14.614;2023-03-04T09:33:17;-1.80;76.50
15879;DHT22;61999;51.514;14.614;2023-03-04T09:35:45;-1.60;76.30
15879;DHT22;61999;51.514;14.614;2023-03-04T09:38:15;-1.30;75.00
15879;DHT22;61999;51.514;14.614;2023-03-04T09:40:45;-1.30;74.50
15879;DHT22;61999;51.514;14.614;2023-03-04T09:43:19;-1.30;74.80
15879;DHT22;61999;51.514;14.614;2023-03-04T09:45:57;-1.20;74.70
15879;DHT22;61999;51.514;14.614;2023-03-04T09:48:35;-1.40;75.00
15879;DHT22;61999;51.514;14.614;2023-03-04T09:51:20;-1.20;74.30
15879;DHT22;61999;51.514;14.614;2023-03-04T09:54:05;-1.20;74.90
15879;DHT22;61999;51.514;14.614;2023-03-04T09:56:38;-1.30;74.80
15879;DHT22;61999;51.514;14.614;2023-03-04T09:59:14;-1.40;75.60
15879;DHT22;61999;51.514;14.614;2023-03-04T10:01:53;-1.50;76.20
15879;DHT22;61999;51.514;14.614;2023-03-04T10:04:29;-1.50;75.80
15879;DHT22;61999;51.514;14.614;2023-03-04T10:07:02;-1.60;76.90
15879;DHT22;61999;51.514;14.614;2023-03-04T10:09:43;-1.50;76.70
15879;DHT22;61999;51.514;14.614;2023-03-04T10:12:19;-1.40;76.30
15879;DHT22;61999;51.514;14.614;2023-03-04T10:14:56;-1.30;75.60
15879;DHT22;61999;51.514;14.614;2023-03-04T10:17:33;-1.30;76.20
15879;DHT22;61999;51.514;14.614;2023-03-04T10:20:04;-1.20;75.60
15879;DHT22;61999;51.514;14.614;2023-03-04T10:22:42;-1.30;76.30
15879;DHT22;61999;51.514;14.614;2023-03-04T10:25:17;-1.20;76.20
15879;DHT22;61999;51.514;14.614;2023-03-04T10:27:50;-1.10;75.80
15879;DHT22;61999;51.514;14.614;2023-03-04T10:30:31;-1.00;75.10
15879;DHT22;61999;51.514;14.614;2023-03-04T10:33:11;-0.90;75.20
15879;DHT22;61999;51.514;14.614;2023-03-04T10:35:44;-0.80;74.80
15879;DHT22;61999;51.514;14.614;2023-03-04T10:38:15;-0.70;74.60
15879;DHT22;61999;51.514;14.614;2023-03-04T10:40:47;-0.70;74.80
15879;DHT22;61999;51.514;14.614;2023-03-04T10:43:16;-0.40;73.40
15879;DHT22;61999;51.514;14.614;2023-03-04T10:45:47;-0.40;73.40
15879;DHT22;61999;51.514;14.614;2023-03-04T10:48:21;-0.40;73.00
15879;DHT22;61999;51.514;14.614;2023-03-04T10:50:50;-0.40;73.40
15879;DHT22;61999;51.514;14.614;2023-03-04T10:53:27;-0.30;72.90
15879;DHT22;61999;51.514;14.614;2023-03-04T10:55:59;-0.20;71.90
15879;DHT22;61999;51.514;14.614;2023-03-04T10:58:28;-0.40;72.80
15879;DHT22;61999;51.514;14.614;2023-03-04T11:01:03;-0.40;73.10
15879;DHT22;61999;51.514;14.614;2023-03-04T11:03:34;-0.50;74.20
15879;DHT22;61999;51.514;14.614;2023-03-04T11:06:06;-0.30;73.50
15879;DHT22;61999;51.514;14.614;2023-03-04T11:08:42;-0.20;73.40
15879;DHT22;61999;51.514;14.614;2023-03-04T11:11:26;-0.10;73.10
15879;DHT22;61999;51.514;14.614;2023-03-04T11:14:03;0.00;72.00
15879;DHT22;61999;51.514;14.614;2023-03-04T11:16:52;0.00;72.00
15879;DHT22;61999;51.514;14.614;2023-03-04T11:19:25;0.00;72.70
15879;DHT22;61999;51.514;14.614;2023-03-04T11:21:59;0.10;72.10
15879;DHT22;61999;51.514;14.614;2023-03-04T11:24:29;0.10;73.20
15879;DHT22;61999;51.514;14.614;2023-03-04T11:27:03;0.30;72.20
15879;DHT22;61999;51.514;14.614;2023-03-04T11:29:36;0.40;70.80
15879;DHT22;61999;51.514;14.614;2023-03-04T11:32:12;0.40;71.00
15879;DHT22;61999;51.514;14.614;2023-03-04T11:34:49;0.30;71.80
15879;DHT22;61999;51.514;14.614;2023-03-04T11:37:25;0.50;72.10
15879;DHT22;61999;51.514;14.614;2023-03-04T11:40:00;0.90;70.90
15879;DHT22;61999;51.514;14.614;2023-03-04T11:42:36;1.10;70.90
15879;DHT22;61999;51.514;14.614;2023-03-04T11:45:12;1.30;69.10
15879;DHT22;61999;51.514;14.614;2023-03-04T11:48:03;1.40;68.80
15879;DHT22;61999;51.514;14.614;2023-03-04T11:50:44;1.30;68.90
15879;DHT22;61999;51.514;14.614;2023-03-04T11:53:29;1.40;67.80
15879;DHT22;61999;51.514;14.614;2023-03-04T11:56:22;1.40;67.30
15879;DHT22;61999;51.514;14.614;2023-03-04T12:02:12;1.30;68.80
15879;DHT22;61999;51.514;14.614;2023-03-04T12:04:55;1.40;67.50
15879;DHT22;61999;51.514;14.614;2023-03-04T12:08:18;1.20;69.20
15879;DHT22;61999;51.514;14.614;2023-03-04T12:11:01;1.30;69.50
15879;DHT22;61999;51.514;14.614;2023-03-04T12:13:45;1.10;70.70
15879;DHT22;61999;51.514;14.614;2023-03-04T12:16:33;1.20;71.90
15879;DHT22;61999;51.514;14.614;2023-03-04T12:19:26;1.60;69.10
15879;DHT22;61999;51.514;14.614;2023-03-04T12:22:23;1.70;68.30
15879;DHT22;61999;51.514;14.614;2023-03-04T12:25:22;1.70;69.40
15879;DHT22;61999;51.514;14.614;2023-03-04T12:28:07;1.80;68.90
15879;DHT22;61999;51.514;14.614;2023-03-04T12:31:07;2.20;67.50
15879;DHT22;61999;51.514;14.614;2023-03-04T12:33:53;2.30;65.50
15879;DHT22;61999;51.514;14.614;2023-03-04T12:36:37;2.20;64.20
15879;DHT22;61999;51.514;14.614;2023-03-04T12:39:21;2.00;65.10
15879;DHT22;61999;51.514;14.614;2023-03-04T12:42:05;1.80;66.20
15879;DHT22;61999;51.514;14.614;2023-03-04T12:44:51;1.60;65.50
15879;DHT22;61999;51.514;14.614;2023-03-04T12:47:31;1.40;66.20
15879;DHT22;61999;51.514;14.614;2023-03-04T12:50:30;1.40;67.40
15879;DHT22;61999;51.514;14.614;2023-03-04T12:53:14;1.30;67.10
15879;DHT22;61999;51.514;14.614;2023-03-04T12:55:49;1.10;68.60
15879;DHT22;61999;51.514;14.614;2023-03-04T12:58:20;1.10;69.10
15879;DHT22;61999;51.514;14.614;2023-03-04T13:00:59;1.10;69.70
15879;DHT22;61999;51.514;14.614;2023-03-04T13:03:40;1.40;68.70
15879;DHT22;61999;51.514;14.614;2023-03-04T13:06:28;1.50;67.40
15879;DHT22;61999;51.514;14.614;2023-03-04T13:09:16;1.70;66.30
15879;DHT22;61999;51.514;14.614;2023-03-04T13:12:00;1.70;66.50
15879;DHT22;61999;51.514;14.614;2023-03-04T13:14:32;1.80;65.80
15879;DHT22;61999;51.514;14.614;2023-03-04T13:17:37;1.90;65.10
15879;DHT22;61999;51.514;14.614;2023-03-04T13:20:24;1.90;65.30
15879;DHT22;61999;51.514;14.614;2023-03-04T13:23:01;2.00;65.40
15879;DHT22;61999;51.514;14.614;2023-03-04T13:25:38;1.90;65.30
15879;DHT22;61999;51.514;14.614;2023-03-04T13:28:27;2.10;64.30
15879;DHT22;61999;51.514;14.614;2023-03-04T13:31:24;1.90;64.90
15879;DHT22;61999;51.514;14.614;2023-03-04T13:36:34;1.80;65.00
15879;DHT22;61999;51.514;14.614;2023-03-04T13:39:25;1.80;65.10
15879;DHT22;61999;51.514;14.614;2023-03-04T13:42:01;1.80;64.90
15879;DHT22;61999;51.514;14.614;2023-03-04T13:44:57;1.90;64.50
15879;DHT22;61999;51.514;14.614;2023-03-04T13:47:43;1.70;65.00
15879;DHT22;61999;51.514;14.614;2023-03-04T13:50:43;1.90;63.90
15879;DHT22;61999;51.514;14.614;2023-03-04T13:53:34;1.80;64.10
15879;DHT22;61999;51.514;14.614;2023-03-04T13:56:23;1.60;65.20
15879;DHT22;61999;51.514;14.614;2023-03-04T13:59:07;1.70;64.80
15879;DHT22;61999;51.514;14.614;2023-03-04T14:02:01;1.80;63.80
15879;DHT22;61999;51.514;14.614;2023-03-04T14:04:33;1.70;64.20
15879;DHT22;61999;51.514;14.614;2023-03-04T14:07:17;1.60;64.30
15879;DHT22;61999;51.514;14.614;2023-03-04T14:10:00;1.70;63.70
15879;DHT22;61999;51.514;14.614;2023-03-04T14:12:32;1.60;63.50
15879;DHT22;61999;51.514;14.614;2023-03-04T14:15:04;1.50;63.80
15879;DHT22;61999;51.514;14.614;2023-03-04T14:17:47;1.50;63.90
15879;DHT22;61999;51.514;14.614;2023-03-04T14:20:23;1.60;64.00
15879;DHT22;61999;51.514;14.614;2023-03-04T14:22:54;1.40;64.20
15879;DHT22;61999;51.514;14.614;2023-03-04T14:25:23;1.60;63.50
15879;DHT22;61999;51.514;14.614;2023-03-04T14:28:02;1.50;63.70
15879;DHT22;61999;51.514;14.614;2023-03-04T14:30:34;1.50;63.40
15879;DHT22;61999;51.514;14.614;2023-03-04T14:33:14;1.40;63.80
15879;DHT22;61999;51.514;14.614;2023-03-04T14:35:47;1.40;64.00
15879;DHT22;61999;51.514;14.614;2023-03-04T14:38:22;1.50;63.50
15879;DHT22;61999;51.514;14.614;2023-03-04T14:40:56;1.40;63.90
15879;DHT22;61999;51.514;14.614;2023-03-04T14:43:28;1.50;63.60
15879;DHT22;61999;51.514;14.614;2023-03-04T14:46:02;1.40;64.00
15879;DHT22;61999;51.514;14.614;2023-03-04T14:48:44;1.40;63.80
15879;DHT22;61999;51.514;14.614;2023-03-04T14:51:33;1.40;63.70
15879;DHT22;61999;51.514;14.614;2023-03-04T14:54:25;1.50;63.40
15879;DHT22;61999;51.514;14.614;2023-03-04T14:56:56;1.40;63.50
15879;DHT22;61999;51.514;14.614;2023-03-04T14:59:32;1.50;63.20
15879;DHT22;61999;51.514;14.614;2023-03-04T15:02:26;1.60;63.20
15879;DHT22;61999;51.514;14.614;2023-03-04T15:05:07;1.50;63.10
15879;DHT22;61999;51.514;14.614;2023-03-04T15:07:43;1.60;63.20
15879;DHT22;61999;51.514;14.614;2023-03-04T15:10:21;1.60;62.90
15879;DHT22;61999;51.514;14.614;2023-03-04T15:12:52;1.70;62.40
15879;DHT22;61999;51.514;14.614;2023-03-04T15:15:37;1.90;61.20
15879;DHT22;61999;51.514;14.614;2023-03-04T15:18:21;1.70;62.20
15879;DHT22;61999;51.514;14.614;2023-03-04T15:20:57;1.70;61.60
15879;DHT22;61999;51.514;14.614;2023-03-04T15:23:28;1.70;61.60
15879;DHT22;61999;51.514;14.614;2023-03-04T15:25:59;1.60;61.60
15879;DHT22;61999;51.514;14.614;2023-03-04T15:28:31;1.60;61.70
15879;DHT22;61999;51.514;14.614;2023-03-04T15:31:01;1.60;61.40
15879;DHT22;61999;51.514;14.614;2023-03-04T15:33:29;1.60;60.80
15879;DHT22;61999;51.514;14.614;2023-03-04T15:36:00;1.60;61.00
15879;DHT22;61999;51.514;14.614;2023-03-04T15:38:29;1.60;60.60
15879;DHT22;61999;51.514;14.614;2023-03-04T15:40:57;1.50;60.90
15879;DHT22;61999;51.514;14.614;2023-03-04T15:43:25;1.40;60.60
15879;DHT22;61999;51.514;14.614;2023-03-04T15:45:53;1.50;60.10
15879;DHT22;61999;51.514;14.614;2023-03-04T15:48:21;1.40;60.20
15879;DHT22;61999;51.514;14.614;2023-03-04T15:50:53;1.50;59.80
15879;DHT22;61999;51.514;14.614;2023-03-04T15:53:31;1.50;59.00
15879;DHT22;61999;51.514;14.614;2023-03-04T15:56:03;1.50;59.10
15879;DHT22;61999;51.514;14.614;2023-03-04T15:58:34;1.20;60.10
15879;DHT22;61999;51.514;14.614;2023-03-04T16:01:03;1.10;60.40